createdAt,value
2023-01-12T00:02:21.593Z,99776.34
2023-01-12T00:07:24.569Z,99779.63
2023-01-12T00:12:27.411Z,99780.31
2023-01-12T00:17:30.162Z,99785.83
2023-01-12T00:22:34.613Z,99779.95
2023-01-12T00:27:37.349Z,99779.88
2023-01-12T00:32:40.179Z,99781.08
2023-01-12T00:37:42.955Z,99780.21
2023-01-12T00:43:04.538Z,99777.43
2023-01-12T00:48:12.848Z,99783.10
2023-01-12T00:53:15.578Z,99790.88
2023-01-12T00:58:18.329Z,99794.84
2023-01-12T01:03:21.069Z,99800.84
2023-01-12T01:08:23.842Z,99799.27
2023-01-12T01:13:26.563Z,99790.64
2023-01-12T01:18:30.411Z,99791.48
2023-01-12T01:23:35.815Z,99797.14
2023-01-12T01:28:39.288Z,99799.70
2023-01-12T01:33:43.187Z,99808.81
2023-01-12T01:38:47.741Z,99806.55
2023-01-12T01:44:02.640Z,99806.88
2023-01-12T01:49:28.724Z,99807.19
2023-01-12T01:54:36.745Z,99803.50
2023-01-12T01:59:45.719Z,99803.45
2023-01-12T02:04:48.698Z,99812.08
2023-01-12T02:09:51.560Z,99808.09
2023-01-12T02:15:14.593Z,99815.53
2023-01-12T02:20:51.020Z,99816.89
2023-01-12T02:26:06.048Z,99816.63
2023-01-12T02:31:40.692Z,99817.97
2023-01-12T02:36:46.579Z,99818.43
2023-01-12T02:42:48.047Z,99811.83
2023-01-12T02:47:56.742Z,99817.29
2023-01-12T02:53:22.715Z,99823.48
2023-01-12T02:58:27.628Z,99840.21
2023-01-12T03:03:31.344Z,99845.83
2023-01-12T03:08:39.380Z,99844.20
2023-01-12T03:13:50.525Z,99848.13
2023-01-12T03:19:10.000Z,99849.36
2023-01-12T03:24:21.889Z,99849.70
2023-01-12T03:29:36.017Z,99846.05
2023-01-12T03:34:39.029Z,99841.40
2023-01-12T03:39:53.701Z,99849.69
2023-01-12T03:45:30.349Z,99839.96
2023-01-12T03:50:48.340Z,99833.16
2023-01-12T03:55:56.366Z,99831.54
2023-01-12T04:00:59.212Z,99829.07
2023-01-12T04:06:02.049Z,99825.26
2023-01-12T04:11:24.898Z,99824.86
2023-01-12T04:16:27.678Z,99826.40
2023-01-12T04:21:49.100Z,99836.41
2023-01-12T04:26:51.899Z,99836.89
2023-01-12T04:31:54.679Z,99840.98
2023-01-12T04:36:57.721Z,99839.81
2023-01-12T04:42:00.559Z,99843.61
2023-01-12T04:47:03.491Z,99839.70
2023-01-12T04:52:06.236Z,99831.77
2023-01-12T04:57:08.960Z,99841.48
2023-01-12T05:02:12.015Z,99845.22
2023-01-12T05:07:16.206Z,99845.95
2023-01-12T05:12:19.148Z,99843.14
2023-01-12T05:17:21.930Z,99840.93
2023-01-12T05:22:24.743Z,99847.68
2023-01-12T05:27:27.558Z,99846.30
2023-01-12T05:32:30.330Z,99842.47
2023-01-12T05:37:33.095Z,99851.25
2023-01-12T05:42:54.580Z,99853.83
2023-01-12T05:47:59.409Z,99851.67
2023-01-12T05:53:02.581Z,99852.54
2023-01-12T05:58:05.661Z,99862.30
2023-01-12T06:03:08.409Z,99864.40
2023-01-12T06:08:12.290Z,99870.31
2023-01-12T06:13:34.775Z,99871.13
2023-01-12T06:18:39.241Z,99872.98
2023-01-12T06:23:42.096Z,99873.52
2023-01-12T06:28:44.978Z,99879.76
2023-01-12T06:33:47.781Z,99891.23
2023-01-12T06:38:54.061Z,99899.27
2023-01-12T06:43:57.852Z,99895.10
2023-01-12T06:49:00.758Z,99892.17
2023-01-12T06:54:03.666Z,99888.96
2023-01-12T06:59:07.822Z,99881.24
2023-01-12T07:04:13.684Z,99872.55
2023-01-12T07:09:17.579Z,99873.02
2023-01-12T07:14:20.521Z,99870.48
2023-01-12T07:19:23.994Z,99872.04
2023-01-12T07:24:26.812Z,99885.38
2023-01-12T07:29:29.741Z,99887.79
2023-01-12T07:34:32.774Z,99887.61
2023-01-12T07:39:35.614Z,99887.21
2023-01-12T07:44:40.359Z,99883.32
2023-01-12T07:49:44.954Z,99878.90
2023-01-12T07:54:48.113Z,99872.86
2023-01-12T07:59:51.317Z,99869.73
2023-01-12T08:04:55.033Z,99859.91
2023-01-12T08:09:58.079Z,99862.60
2023-01-12T08:15:01.024Z,99854.13
2023-01-12T08:20:14.429Z,99847.30
2023-01-12T08:25:28.537Z,99848.40
2023-01-12T08:30:31.887Z,99855.95
2023-01-12T08:35:36.038Z,99855.34
2023-01-12T08:40:57.680Z,99853.18
2023-01-12T08:46:08.631Z,99844.05
2023-01-12T08:51:12.486Z,99838.54
2023-01-12T08:56:19.723Z,99840.17
2023-01-12T09:01:23.178Z,99844.33
2023-01-12T09:06:31.582Z,99851.50
2023-01-12T09:11:35.932Z,99844.91
2023-01-12T09:16:39.404Z,99847.27
2023-01-12T09:21:43.817Z,99848.07
2023-01-12T09:26:47.206Z,99851.65
2023-01-12T09:31:50.367Z,99845.36
2023-01-12T09:36:53.304Z,99838.32
2023-01-12T09:42:16.998Z,99841.58
2023-01-12T09:47:26.024Z,99841.12
2023-01-12T09:52:36.665Z,99834.48
2023-01-12T09:57:58.193Z,99830.12
2023-01-12T10:03:21.223Z,99824.01
2023-01-12T10:08:47.407Z,99825.58
2023-01-12T10:13:57.158Z,99820.16
2023-01-12T10:19:08.918Z,99812.00
2023-01-12T10:24:13.298Z,99802.64
2023-01-12T10:29:16.520Z,99801.12
2023-01-12T10:34:19.613Z,99796.44
2023-01-12T10:39:31.145Z,99785.71
2023-01-12T10:44:35.734Z,99791.70
2023-01-12T10:49:39.419Z,99789.20
2023-01-12T10:54:50.044Z,99790.42
2023-01-12T11:00:02.900Z,99783.01
2023-01-12T11:05:30.797Z,99768.85
2023-01-12T11:10:39.939Z,99756.16
2023-01-12T11:16:01.200Z,99738.92
2023-01-12T11:21:11.553Z,99736.59
2023-01-12T11:26:24.731Z,99733.05
2023-01-12T11:31:39.447Z,99731.95
2023-01-12T11:36:46.729Z,99723.38
2023-01-12T11:42:12.506Z,99723.74
2023-01-12T11:47:20.884Z,99724.00
2023-01-12T11:52:26.165Z,99719.31
2023-01-12T11:57:52.039Z,99713.73
2023-01-12T12:03:30.526Z,99710.80
2023-01-12T12:09:19.017Z,99709.05
2023-01-12T12:14:38.772Z,99702.41
2023-01-12T12:20:18.594Z,99695.14
2023-01-12T12:25:27.340Z,99683.02
2023-01-12T12:30:45.990Z,99678.02
2023-01-12T12:36:06.987Z,99670.54
2023-01-12T12:41:38.892Z,99663.20
2023-01-12T12:47:07.994Z,99655.28
2023-01-12T12:52:13.393Z,99654.89
2023-01-12T12:57:16.503Z,99657.05
2023-01-12T13:02:41.140Z,99648.64
2023-01-12T13:07:51.718Z,99638.53
2023-01-12T13:13:44.249Z,99631.11
2023-01-12T13:18:52.950Z,99629.06
2023-01-12T13:24:14.064Z,99627.70
2023-01-12T13:29:29.079Z,99628.08
2023-01-12T13:34:32.230Z,99621.88
2023-01-12T13:39:38.080Z,99620.71
2023-01-12T13:44:44.759Z,99613.67
2023-01-12T13:49:52.990Z,99607.80
2023-01-12T13:54:56.185Z,99606.33
2023-01-12T14:00:11.272Z,99602.68
2023-01-12T14:05:17.340Z,99601.14
2023-01-12T14:10:33.075Z,99591.36
2023-01-12T14:16:03.544Z,99575.85
2023-01-12T14:21:21.221Z,99573.69
2023-01-12T14:26:27.131Z,99570.75
2023-01-12T14:31:39.577Z,99565.39
2023-01-12T14:36:45.464Z,99571.18
2023-01-12T14:42:14.247Z,99575.23
2023-01-12T14:47:28.435Z,99581.20
2023-01-12T14:52:33.625Z,99588.06
2023-01-12T14:57:37.254Z,99591.63
2023-01-12T15:02:41.561Z,99583.58
2023-01-12T15:08:00.068Z,99583.31
2023-01-12T15:13:24.861Z,99579.20
2023-01-12T15:18:48.535Z,99575.09
2023-01-12T15:24:09.888Z,99575.86
2023-01-12T15:29:12.757Z,99569.25
2023-01-12T15:34:16.913Z,99569.45
2023-01-12T15:39:19.738Z,99574.41
2023-01-12T15:44:22.610Z,99558.61
2023-01-12T15:49:25.557Z,99552.73
2023-01-12T15:54:28.416Z,99542.09
2023-01-12T15:59:31.196Z,99536.41
2023-01-12T16:04:42.570Z,99532.09
2023-01-12T16:09:47.881Z,99530.98
2023-01-12T16:14:51.277Z,99519.30
2023-01-12T16:19:54.139Z,99516.68
2023-01-12T16:24:59.864Z,99505.70
2023-01-12T16:30:03.609Z,99507.77
2023-01-12T16:35:06.787Z,99508.20
2023-01-12T16:40:10.332Z,99501.16
2023-01-12T16:45:14.001Z,99501.50
2023-01-12T16:50:16.861Z,99501.00
2023-01-12T16:55:19.644Z,99498.89
2023-01-12T17:00:22.736Z,99493.26
2023-01-12T17:05:26.025Z,99490.82
2023-01-12T17:10:28.934Z,99480.83
2023-01-12T17:15:33.618Z,99481.67
2023-01-12T17:20:36.659Z,99477.78
2023-01-12T17:25:39.520Z,99468.67
2023-01-12T17:30:43.059Z,99468.05
2023-01-12T17:35:46.227Z,99471.33
2023-01-12T17:40:49.195Z,99467.17
2023-01-12T17:45:52.487Z,99464.82
2023-01-12T17:50:55.354Z,99472.35
2023-01-12T17:56:02.583Z,99466.02
2023-01-12T18:01:13.426Z,99461.77
2023-01-12T18:06:25.749Z,99465.48
2023-01-12T18:11:31.364Z,99454.80
2023-01-12T18:16:36.105Z,99457.95
2023-01-12T18:21:38.878Z,99461.63
2023-01-12T18:26:41.788Z,99459.89
2023-01-12T18:31:47.496Z,99455.45
2023-01-12T18:36:50.448Z,99452.38
2023-01-12T18:42:11.871Z,99445.86
2023-01-12T18:47:33.877Z,99441.42
2023-01-12T18:52:55.171Z,99446.44
2023-01-12T18:57:57.958Z,99454.48
2023-01-12T19:03:00.875Z,99443.40
2023-01-12T19:08:23.709Z,99450.84
2023-01-12T19:13:45.828Z,99455.29
2023-01-12T19:18:48.587Z,99453.00
2023-01-12T19:24:10.513Z,99449.33
2023-01-12T19:29:13.319Z,99448.90
2023-01-12T19:34:16.163Z,99437.78
2023-01-12T19:39:27.080Z,99436.39
2023-01-12T19:44:30.029Z,99435.68
2023-01-12T19:49:32.997Z,99435.86
2023-01-12T19:54:36.102Z,99426.69
2023-01-12T19:59:38.930Z,99430.12
2023-01-12T20:04:41.715Z,99433.45
2023-01-12T20:09:45.998Z,99433.02
2023-01-12T20:14:48.800Z,99428.91
2023-01-12T20:19:57.687Z,99433.60
2023-01-12T20:25:04.023Z,99434.64
2023-01-12T20:30:08.248Z,99430.36
2023-01-12T20:35:18.978Z,99434.56
2023-01-12T20:40:21.851Z,99431.63
2023-01-12T20:45:25.270Z,99424.90
2023-01-12T20:50:30.112Z,99428.58
2023-01-12T20:55:33.080Z,99426.05
2023-01-12T21:00:36.319Z,99430.73
2023-01-12T21:05:44.280Z,99428.11
2023-01-12T21:10:50.191Z,99428.34
2023-01-12T21:16:04.611Z,99432.92
2023-01-12T21:21:08.395Z,99428.70
2023-01-12T21:26:11.380Z,99427.58
2023-01-12T21:31:14.423Z,99428.75
2023-01-12T21:36:19.059Z,99426.41
2023-01-12T21:41:22.591Z,99427.36
2023-01-12T21:46:25.999Z,99425.97
2023-01-12T21:51:29.199Z,99420.56
2023-01-12T21:56:32.026Z,99422.74
2023-01-12T22:01:35.089Z,99420.96
2023-01-12T22:06:38.000Z,99420.70
2023-01-12T22:11:40.977Z,99416.28
2023-01-12T22:16:43.719Z,99411.77
2023-01-12T22:21:46.510Z,99415.55
2023-01-12T22:26:49.270Z,99412.23
2023-01-12T22:31:52.122Z,99414.02
2023-01-12T22:36:56.809Z,99414.92
2023-01-12T22:41:59.569Z,99407.31
2023-01-12T22:47:02.322Z,99413.05
2023-01-12T22:52:05.521Z,99413.09
2023-01-12T22:57:09.786Z,99410.65
2023-01-12T23:02:31.683Z,99401.64
2023-01-12T23:07:34.646Z,99398.16
2023-01-12T23:12:37.496Z,99405.41
2023-01-12T23:17:40.472Z,99404.91
2023-01-12T23:22:43.834Z,99407.88
2023-01-12T23:27:46.660Z,99405.08
2023-01-12T23:32:49.545Z,99405.61
2023-01-12T23:37:53.480Z,99409.98
2023-01-12T23:42:56.596Z,99414.29
2023-01-12T23:47:59.413Z,99413.56
2023-01-12T23:53:02.253Z,99413.54
2023-01-12T23:58:06.523Z,99403.92
